Impacts TAF Board
For situational awareness. Not to be used for flight planning purposes.
IDs:

KBTR - Baton Rouge/Ryan Fld, LA, US

Issued at 0536 UTC 21 Sep 2018
Updated at 0834 UTC 21 Sep 2018
Potential Impact None Slight Moderate High
Time0753Z 21/09Z 21/10Z 21/11Z 21/12Z 21/13Z 21/14Z 21/15Z 21/16Z 21/17Z 21/18Z 21/19Z 21/20Z 21/21Z>>
Type OBS PRVL PRVL PRVL PRVL PRVL PRVL PRVL PRVL PRVL PRVL PRVL
  [PRB30]  
PRVL
  [PRB30]  
PRVL
VIS 7 >6 >6 >6 >6 >6 >6 >6 >6 >6 >6 >6
  [4]  
>6
  [4]  
>6
CIG -- -- -- -- -- -- -- 100 100 100 100 100
  [25]  
100
  [25]  
100
Cover CLR FEW FEW FEW FEW FEW FEW BKN BKN BKN BKN BKN
  [BKN]  
BKN
  [BKN]  
BKN
FltCat VFR VFR VFR VFR VFR VFR VFR VFR VFR VFR VFR VFR
  [MVFR]  
VFR
  [MVFR]  
VFR
WX -- -- -- -- -- -- -- -- -- -- -- --
  [-TSRA]  
--
  [-TSRA]  
--
WDir 70 VRB VRB VRB VRB VRB VRB 120 120 120 120 120
[120]
120
[120]
120
WSpd 4 6 6 6 6 6 6 6 6 6 6 6
  [6]  
6
  [6]  
6
WGst -- -- -- -- -- -- -- -- -- -- -- --
  [--]  
--
  [--]  
--
Raw TAF
KBTR 210536Z 2106/2206 VRB06KT P6SM FEW025 FEW250
  FM211500 12006KT P6SM SCT025 BKN100
  PROB30 2119/2121 4SM -TSRA BKN025CB BKN030 BKN035
  FM212300 15006KT P6SM VCTS SCT035CB BKN100
  PROB30 2123/2124 4SM -TSRA BKN035CB
  FM220200 14004KT P6SM FEW025 SCT110


Raw METAR
KBTR 210753Z AUTO 07004KT 7SM CLR 23/23 A3000 RMK AO2 SLP157 T02330228
KBTR 210653Z AUTO 00000KT 7SM CLR 24/23 A3001 RMK AO2 SLP160 T02390233
KBTR 210553Z AUTO 00000KT 8SM CLR 24/23 A3002 RMK AO2 SLP164 T02390233 10272 20239 403330222 50002

METAR Board
Radar Display
Forecast Discussion
For situational awareness. Not to be used for flight planning purposes.